sensor_id;sensor_type;location;lat;lon;timestamp;P1;durP1;ratioP1;P2;durP2;ratioP2
944;SDS011;459;48.676;9.034;2024-02-15T00:00:44;4.10;;;1.87;;
944;SDS011;459;48.676;9.034;2024-02-15T00:03:10;1.30;;;1.20;;
944;SDS011;459;48.676;9.034;2024-02-15T00:05:38;2.90;;;1.83;;
944;SDS011;459;48.676;9.034;2024-02-15T00:08:03;2.53;;;1.53;;
944;SDS011;459;48.676;9.034;2024-02-15T00:10:29;2.13;;;1.87;;
944;SDS011;459;48.676;9.034;2024-02-15T00:12:54;1.60;;;1.40;;
944;SDS011;459;48.676;9.034;2024-02-15T00:15:20;1.50;;;1.40;;
944;SDS011;459;48.676;9.034;2024-02-15T00:17:45;3.60;;;1.57;;
944;SDS011;459;48.676;9.034;2024-02-15T00:20:11;2.23;;;2.03;;
944;SDS011;459;48.676;9.034;2024-02-15T00:22:37;1.97;;;1.70;;
944;SDS011;459;48.676;9.034;2024-02-15T00:25:03;3.20;;;1.87;;
944;SDS011;459;48.676;9.034;2024-02-15T00:27:29;1.63;;;1.53;;
944;SDS011;459;48.676;9.034;2024-02-15T00:29:55;1.37;;;1.13;;
944;SDS011;459;48.676;9.034;2024-02-15T00:32:20;1.50;;;1.33;;
944;SDS011;459;48.676;9.034;2024-02-15T00:34:45;2.40;;;1.80;;
944;SDS011;459;48.676;9.034;2024-02-15T00:37:11;2.63;;;1.53;;
944;SDS011;459;48.676;9.034;2024-02-15T00:39:37;2.57;;;1.63;;
944;SDS011;459;48.676;9.034;2024-02-15T00:42:03;3.10;;;1.57;;
944;SDS011;459;48.676;9.034;2024-02-15T00:44:30;1.87;;;1.43;;
944;SDS011;459;48.676;9.034;2024-02-15T00:46:56;2.07;;;1.73;;
944;SDS011;459;48.676;9.034;2024-02-15T00:49:21;2.40;;;1.63;;
944;SDS011;459;48.676;9.034;2024-02-15T00:51:47;3.40;;;2.37;;
944;SDS011;459;48.676;9.034;2024-02-15T00:54:12;2.13;;;1.93;;
944;SDS011;459;48.676;9.034;2024-02-15T00:56:37;2.10;;;1.93;;
944;SDS011;459;48.676;9.034;2024-02-15T00:59:02;4.00;;;2.23;;
944;SDS011;459;48.676;9.034;2024-02-15T01:01:28;1.53;;;1.33;;
944;SDS011;459;48.676;9.034;2024-02-15T01:03:53;1.97;;;1.20;;
944;SDS011;459;48.676;9.034;2024-02-15T01:06:18;3.80;;;1.40;;
944;SDS011;459;48.676;9.034;2024-02-15T01:08:44;3.40;;;1.80;;
944;SDS011;459;48.676;9.034;2024-02-15T01:11:09;3.80;;;1.80;;
944;SDS011;459;48.676;9.034;2024-02-15T01:13:34;1.60;;;1.23;;
944;SDS011;459;48.676;9.034;2024-02-15T01:16:00;1.63;;;1.23;;
944;SDS011;459;48.676;9.034;2024-02-15T01:18:28;3.30;;;1.30;;
944;SDS011;459;48.676;9.034;2024-02-15T01:20:54;1.90;;;1.40;;
944;SDS011;459;48.676;9.034;2024-02-15T01:23:19;1.37;;;1.20;;
944;SDS011;459;48.676;9.034;2024-02-15T01:25:45;4.10;;;1.60;;
944;SDS011;459;48.676;9.034;2024-02-15T01:28:10;1.57;;;1.40;;
944;SDS011;459;48.676;9.034;2024-02-15T01:30:36;2.60;;;1.37;;
944;SDS011;459;48.676;9.034;2024-02-15T01:33:01;2.07;;;1.10;;
944;SDS011;459;48.676;9.034;2024-02-15T01:35:26;2.93;;;1.50;;
944;SDS011;459;48.676;9.034;2024-02-15T01:37:52;1.67;;;1.57;;
944;SDS011;459;48.676;9.034;2024-02-15T01:40:17;2.00;;;1.50;;
944;SDS011;459;48.676;9.034;2024-02-15T01:42:44;1.60;;;1.50;;
944;SDS011;459;48.676;9.034;2024-02-15T01:45:09;1.60;;;1.50;;
944;SDS011;459;48.676;9.034;2024-02-15T01:47:36;2.20;;;1.60;;
944;SDS011;459;48.676;9.034;2024-02-15T01:50:02;2.30;;;1.40;;
944;SDS011;459;48.676;9.034;2024-02-15T01:52:27;2.77;;;2.00;;
944;SDS011;459;48.676;9.034;2024-02-15T01:54:53;1.70;;;1.40;;
944;SDS011;459;48.676;9.034;2024-02-15T01:57:19;5.03;;;2.20;;
944;SDS011;459;48.676;9.034;2024-02-15T01:59:46;3.53;;;1.90;;
944;SDS011;459;48.676;9.034;2024-02-15T02:02:11;2.83;;;1.77;;
944;SDS011;459;48.676;9.034;2024-02-15T02:04:38;3.37;;;3.13;;
944;SDS011;459;48.676;9.034;2024-02-15T02:07:03;3.13;;;1.40;;
944;SDS011;459;48.676;9.034;2024-02-15T02:09:28;2.37;;;1.70;;
944;SDS011;459;48.676;9.034;2024-02-15T02:11:54;2.47;;;1.30;;
944;SDS011;459;48.676;9.034;2024-02-15T02:14:19;1.70;;;1.60;;
944;SDS011;459;48.676;9.034;2024-02-15T02:16:45;2.17;;;1.67;;
944;SDS011;459;48.676;9.034;2024-02-15T02:19:11;3.03;;;2.00;;
944;SDS011;459;48.676;9.034;2024-02-15T02:21:36;1.93;;;1.80;;
944;SDS011;459;48.676;9.034;2024-02-15T02:24:04;2.60;;;2.03;;
944;SDS011;459;48.676;9.034;2024-02-15T02:26:33;1.83;;;1.63;;
944;SDS011;459;48.676;9.034;2024-02-15T02:28:59;3.27;;;1.57;;
944;SDS011;459;48.676;9.034;2024-02-15T02:31:24;1.83;;;1.73;;
944;SDS011;459;48.676;9.034;2024-02-15T02:33:50;2.35;;;1.45;;
944;SDS011;459;48.676;9.034;2024-02-15T02:36:19;1.50;;;1.40;;
944;SDS011;459;48.676;9.034;2024-02-15T02:38:44;1.73;;;1.60;;
944;SDS011;459;48.676;9.034;2024-02-15T02:41:16;2.20;;;1.47;;
944;SDS011;459;48.676;9.034;2024-02-15T02:43:42;3.03;;;1.77;;
944;SDS011;459;48.676;9.034;2024-02-15T02:46:10;4.10;;;1.90;;
944;SDS011;459;48.676;9.034;2024-02-15T02:48:35;2.30;;;2.07;;
944;SDS011;459;48.676;9.034;2024-02-15T02:51:01;3.33;;;1.70;;
944;SDS011;459;48.676;9.034;2024-02-15T02:53:26;2.70;;;1.70;;
944;SDS011;459;48.676;9.034;2024-02-15T02:55:51;2.60;;;2.20;;
944;SDS011;459;48.676;9.034;2024-02-15T02:58:16;2.07;;;1.60;;
944;SDS011;459;48.676;9.034;2024-02-15T03:00:42;2.77;;;1.80;;
944;SDS011;459;48.676;9.034;2024-02-15T03:03:07;2.10;;;1.63;;
944;SDS011;459;48.676;9.034;2024-02-15T03:05:32;4.50;;;1.80;;
944;SDS011;459;48.676;9.034;2024-02-15T03:07:58;2.90;;;1.98;;
944;SDS011;459;48.676;9.034;2024-02-15T03:10:23;1.80;;;1.67;;
944;SDS011;459;48.676;9.034;2024-02-15T03:12:49;2.43;;;1.83;;
944;SDS011;459;48.676;9.034;2024-02-15T03:15:14;2.60;;;1.70;;
944;SDS011;459;48.676;9.034;2024-02-15T03:17:40;2.73;;;2.03;;
944;SDS011;459;48.676;9.034;2024-02-15T03:20:06;2.40;;;1.67;;
944;SDS011;459;48.676;9.034;2024-02-15T03:22:37;1.97;;;1.53;;
944;SDS011;459;48.676;9.034;2024-02-15T03:25:03;1.97;;;1.77;;
944;SDS011;459;48.676;9.034;2024-02-15T03:27:34;1.60;;;1.50;;
944;SDS011;459;48.676;9.034;2024-02-15T03:30:00;2.20;;;1.97;;
944;SDS011;459;48.676;9.034;2024-02-15T03:32:25;2.93;;;1.83;;
944;SDS011;459;48.676;9.034;2024-02-15T03:34:51;2.40;;;1.60;;
944;SDS011;459;48.676;9.034;2024-02-15T03:37:16;1.43;;;1.33;;
944;SDS011;459;48.676;9.034;2024-02-15T03:39:43;2.60;;;2.37;;
944;SDS011;459;48.676;9.034;2024-02-15T03:42:09;2.67;;;1.87;;
944;SDS011;459;48.676;9.034;2024-02-15T03:44:35;2.57;;;1.90;;
944;SDS011;459;48.676;9.034;2024-02-15T03:47:00;2.30;;;1.73;;
944;SDS011;459;48.676;9.034;2024-02-15T03:49:25;2.37;;;2.17;;
944;SDS011;459;48.676;9.034;2024-02-15T03:51:52;2.40;;;1.60;;
944;SDS011;459;48.676;9.034;2024-02-15T03:54:20;2.30;;;1.63;;
944;SDS011;459;48.676;9.034;2024-02-15T03:56:48;2.20;;;1.97;;
944;SDS011;459;48.676;9.034;2024-02-15T03:59:16;1.70;;;1.60;;
944;SDS011;459;48.676;9.034;2024-02-15T04:01:41;1.97;;;1.57;;
944;SDS011;459;48.676;9.034;2024-02-15T04:04:07;3.10;;;1.60;;
944;SDS011;459;48.676;9.034;2024-02-15T04:06:32;2.03;;;1.83;;
944;SDS011;459;48.676;9.034;2024-02-15T04:08:58;4.13;;;2.20;;
944;SDS011;459;48.676;9.034;2024-02-15T04:11:24;1.63;;;1.53;;
944;SDS011;459;48.676;9.034;2024-02-15T04:13:50;2.60;;;2.10;;
944;SDS011;459;48.676;9.034;2024-02-15T04:16:15;2.10;;;1.90;;
944;SDS011;459;48.676;9.034;2024-02-15T04:18:41;3.30;;;1.87;;
944;SDS011;459;48.676;9.034;2024-02-15T04:21:07;1.83;;;1.73;;
944;SDS011;459;48.676;9.034;2024-02-15T04:23:33;1.73;;;1.63;;
944;SDS011;459;48.676;9.034;2024-02-15T04:25:58;2.37;;;1.90;;
944;SDS011;459;48.676;9.034;2024-02-15T04:28:24;2.50;;;1.73;;
944;SDS011;459;48.676;9.034;2024-02-15T04:30:50;3.40;;;1.63;;
944;SDS011;459;48.676;9.034;2024-02-15T04:33:15;3.10;;;1.93;;
944;SDS011;459;48.676;9.034;2024-02-15T04:35:41;2.40;;;1.57;;
944;SDS011;459;48.676;9.034;2024-02-15T04:38:07;1.73;;;1.63;;
944;SDS011;459;48.676;9.034;2024-02-15T04:40:33;2.13;;;2.00;;
944;SDS011;459;48.676;9.034;2024-02-15T04:42:58;2.40;;;1.40;;
944;SDS011;459;48.676;9.034;2024-02-15T04:45:24;2.30;;;2.10;;
944;SDS011;459;48.676;9.034;2024-02-15T04:47:49;4.20;;;2.37;;
944;SDS011;459;48.676;9.034;2024-02-15T04:50:17;2.40;;;2.17;;
944;SDS011;459;48.676;9.034;2024-02-15T04:52:43;2.40;;;2.10;;
944;SDS011;459;48.676;9.034;2024-02-15T04:55:10;1.73;;;1.40;;
944;SDS011;459;48.676;9.034;2024-02-15T04:57:35;2.27;;;2.07;;
944;SDS011;459;48.676;9.034;2024-02-15T05:00:02;1.90;;;1.80;;
944;SDS011;459;48.676;9.034;2024-02-15T05:02:34;4.23;;;2.20;;
944;SDS011;459;48.676;9.034;2024-02-15T05:05:01;2.50;;;1.67;;
944;SDS011;459;48.676;9.034;2024-02-15T05:07:26;3.63;;;2.20;;
944;SDS011;459;48.676;9.034;2024-02-15T05:09:52;2.57;;;2.37;;
944;SDS011;459;48.676;9.034;2024-02-15T05:12:23;2.23;;;1.80;;
944;SDS011;459;48.676;9.034;2024-02-15T05:14:49;1.57;;;1.47;;
944;SDS011;459;48.676;9.034;2024-02-15T05:17:15;1.97;;;1.73;;
944;SDS011;459;48.676;9.034;2024-02-15T05:19:40;3.60;;;1.50;;
944;SDS011;459;48.676;9.034;2024-02-15T05:22:05;2.60;;;1.80;;
944;SDS011;459;48.676;9.034;2024-02-15T05:24:31;2.37;;;2.23;;
944;SDS011;459;48.676;9.034;2024-02-15T05:26:57;2.17;;;1.97;;
944;SDS011;459;48.676;9.034;2024-02-15T05:29:22;2.20;;;2.00;;
944;SDS011;459;48.676;9.034;2024-02-15T05:31:48;2.60;;;1.63;;
944;SDS011;459;48.676;9.034;2024-02-15T05:34:16;3.47;;;1.83;;
944;SDS011;459;48.676;9.034;2024-02-15T05:36:41;1.80;;;1.70;;
944;SDS011;459;48.676;9.034;2024-02-15T05:39:06;2.00;;;1.37;;
944;SDS011;459;48.676;9.034;2024-02-15T05:41:32;2.00;;;1.80;;
944;SDS011;459;48.676;9.034;2024-02-15T05:43:57;2.60;;;2.00;;
944;SDS011;459;48.676;9.034;2024-02-15T05:46:23;3.20;;;1.50;;
944;SDS011;459;48.676;9.034;2024-02-15T05:48:48;2.33;;;1.60;;
944;SDS011;459;48.676;9.034;2024-02-15T05:51:13;1.83;;;1.70;;
944;SDS011;459;48.676;9.034;2024-02-15T05:53:39;2.10;;;1.53;;
944;SDS011;459;48.676;9.034;2024-02-15T05:56:06;1.73;;;1.60;;
944;SDS011;459;48.676;9.034;2024-02-15T05:58:32;1.50;;;1.40;;
944;SDS011;459;48.676;9.034;2024-02-15T06:00:57;1.40;;;1.30;;
944;SDS011;459;48.676;9.034;2024-02-15T06:03:26;2.50;;;1.73;;
944;SDS011;459;48.676;9.034;2024-02-15T06:05:52;3.93;;;1.80;;
944;SDS011;459;48.676;9.034;2024-02-15T06:08:17;3.73;;;2.07;;
944;SDS011;459;48.676;9.034;2024-02-15T06:10:42;3.53;;;2.00;;
944;SDS011;459;48.676;9.034;2024-02-15T06:13:08;2.77;;;1.77;;
944;SDS011;459;48.676;9.034;2024-02-15T06:15:36;5.43;;;2.03;;
944;SDS011;459;48.676;9.034;2024-02-15T06:18:01;1.87;;;1.73;;
944;SDS011;459;48.676;9.034;2024-02-15T06:20:28;2.43;;;1.90;;
944;SDS011;459;48.676;9.034;2024-02-15T06:22:55;2.23;;;2.03;;
944;SDS011;459;48.676;9.034;2024-02-15T06:25:20;2.50;;;1.90;;
944;SDS011;459;48.676;9.034;2024-02-15T06:27:46;1.90;;;1.80;;
944;SDS011;459;48.676;9.034;2024-02-15T06:30:11;2.77;;;2.27;;
944;SDS011;459;48.676;9.034;2024-02-15T06:32:55;3.83;;;3.10;;
944;SDS011;459;48.676;9.034;2024-02-15T06:35:39;5.70;;;3.37;;
944;SDS011;459;48.676;9.034;2024-02-15T06:38:23;4.63;;;2.70;;
944;SDS011;459;48.676;9.034;2024-02-15T06:41:07;3.47;;;2.57;;
944;SDS011;459;48.676;9.034;2024-02-15T06:43:32;4.30;;;2.97;;
944;SDS011;459;48.676;9.034;2024-02-15T06:45:59;2.90;;;2.60;;
944;SDS011;459;48.676;9.034;2024-02-15T06:48:24;3.80;;;3.00;;
944;SDS011;459;48.676;9.034;2024-02-15T06:50:51;2.80;;;2.60;;
944;SDS011;459;48.676;9.034;2024-02-15T06:53:16;3.27;;;2.97;;
944;SDS011;459;48.676;9.034;2024-02-15T06:55:42;4.17;;;3.10;;
944;SDS011;459;48.676;9.034;2024-02-15T06:58:07;2.97;;;2.73;;
944;SDS011;459;48.676;9.034;2024-02-15T07:00:33;5.00;;;2.53;;
944;SDS011;459;48.676;9.034;2024-02-15T07:02:58;3.30;;;2.60;;
944;SDS011;459;48.676;9.034;2024-02-15T07:05:23;2.53;;;2.30;;
944;SDS011;459;48.676;9.034;2024-02-15T07:07:49;3.03;;;2.50;;
944;SDS011;459;48.676;9.034;2024-02-15T07:10:14;2.60;;;2.10;;
944;SDS011;459;48.676;9.034;2024-02-15T07:12:41;5.90;;;2.53;;
944;SDS011;459;48.676;9.034;2024-02-15T07:15:08;2.40;;;2.17;;
944;SDS011;459;48.676;9.034;2024-02-15T07:17:34;2.10;;;1.90;;
944;SDS011;459;48.676;9.034;2024-02-15T07:20:02;5.80;;;2.27;;
944;SDS011;459;48.676;9.034;2024-02-15T07:22:30;1.80;;;1.70;;
944;SDS011;459;48.676;9.034;2024-02-15T07:24:56;1.80;;;1.70;;
944;SDS011;459;48.676;9.034;2024-02-15T07:27:21;2.17;;;1.97;;
944;SDS011;459;48.676;9.034;2024-02-15T07:29:50;4.33;;;2.30;;
944;SDS011;459;48.676;9.034;2024-02-15T07:32:15;2.33;;;2.10;;
944;SDS011;459;48.676;9.034;2024-02-15T07:34:41;2.47;;;2.27;;
944;SDS011;459;48.676;9.034;2024-02-15T07:37:08;2.50;;;2.00;;
944;SDS011;459;48.676;9.034;2024-02-15T07:39:34;3.03;;;2.37;;
944;SDS011;459;48.676;9.034;2024-02-15T07:42:01;3.20;;;2.10;;
944;SDS011;459;48.676;9.034;2024-02-15T07:44:28;2.17;;;1.90;;
944;SDS011;459;48.676;9.034;2024-02-15T07:46:55;2.50;;;2.30;;
944;SDS011;459;48.676;9.034;2024-02-15T07:49:20;2.25;;;2.05;;
944;SDS011;459;48.676;9.034;2024-02-15T07:51:47;2.73;;;2.53;;
944;SDS011;459;48.676;9.034;2024-02-15T07:54:17;2.20;;;2.00;;
944;SDS011;459;48.676;9.034;2024-02-15T07:56:45;2.67;;;2.43;;
944;SDS011;459;48.676;9.034;2024-02-15T07:59:10;3.43;;;2.40;;
944;SDS011;459;48.676;9.034;2024-02-15T08:01:36;2.23;;;2.03;;
944;SDS011;459;48.676;9.034;2024-02-15T08:04:01;2.30;;;2.03;;
944;SDS011;459;48.676;9.034;2024-02-15T08:06:26;3.60;;;2.10;;
944;SDS011;459;48.676;9.034;2024-02-15T08:08:53;3.60;;;2.30;;
944;SDS011;459;48.676;9.034;2024-02-15T08:11:18;2.93;;;2.50;;
944;SDS011;459;48.676;9.034;2024-02-15T08:13:47;2.37;;;2.17;;
944;SDS011;459;48.676;9.034;2024-02-15T08:16:15;2.13;;;1.93;;
944;SDS011;459;48.676;9.034;2024-02-15T08:18:41;3.60;;;1.90;;
944;SDS011;459;48.676;9.034;2024-02-15T08:21:06;2.60;;;2.40;;
944;SDS011;459;48.676;9.034;2024-02-15T08:23:31;2.90;;;2.40;;
944;SDS011;459;48.676;9.034;2024-02-15T08:25:57;3.70;;;2.30;;
944;SDS011;459;48.676;9.034;2024-02-15T08:28:22;2.73;;;1.80;;
944;SDS011;459;48.676;9.034;2024-02-15T08:30:48;3.97;;;2.33;;
944;SDS011;459;48.676;9.034;2024-02-15T08:33:13;3.50;;;2.00;;
944;SDS011;459;48.676;9.034;2024-02-15T08:35:38;3.20;;;2.50;;
944;SDS011;459;48.676;9.034;2024-02-15T08:38:05;2.27;;;1.60;;
944;SDS011;459;48.676;9.034;2024-02-15T08:40:30;2.50;;;2.20;;
944;SDS011;459;48.676;9.034;2024-02-15T08:42:56;1.97;;;1.83;;
944;SDS011;459;48.676;9.034;2024-02-15T08:45:21;2.20;;;2.00;;
944;SDS011;459;48.676;9.034;2024-02-15T08:47:46;2.43;;;1.87;;
944;SDS011;459;48.676;9.034;2024-02-15T08:50:11;3.00;;;2.80;;
944;SDS011;459;48.676;9.034;2024-02-15T08:52:37;3.10;;;2.60;;
944;SDS011;459;48.676;9.034;2024-02-15T08:55:08;4.90;;;3.20;;
944;SDS011;459;48.676;9.034;2024-02-15T08:57:34;3.43;;;2.80;;
944;SDS011;459;48.676;9.034;2024-02-15T09:00:00;2.87;;;2.50;;
944;SDS011;459;48.676;9.034;2024-02-15T09:02:25;2.20;;;2.00;;
944;SDS011;459;48.676;9.034;2024-02-15T09:04:50;2.77;;;2.53;;
944;SDS011;459;48.676;9.034;2024-02-15T09:07:16;2.93;;;2.20;;
944;SDS011;459;48.676;9.034;2024-02-15T09:09:41;3.13;;;2.30;;
944;SDS011;459;48.676;9.034;2024-02-15T09:12:06;4.07;;;2.00;;
944;SDS011;459;48.676;9.034;2024-02-15T09:14:32;2.07;;;1.77;;
944;SDS011;459;48.676;9.034;2024-02-15T09:16:58;2.90;;;1.80;;
944;SDS011;459;48.676;9.034;2024-02-15T09:19:23;2.57;;;1.90;;
944;SDS011;459;48.676;9.034;2024-02-15T09:21:49;1.70;;;1.60;;
944;SDS011;459;48.676;9.034;2024-02-15T09:24:14;3.07;;;2.83;;
944;SDS011;459;48.676;9.034;2024-02-15T09:26:41;1.90;;;1.47;;
944;SDS011;459;48.676;9.034;2024-02-15T09:29:06;1.80;;;1.70;;
944;SDS011;459;48.676;9.034;2024-02-15T09:31:31;2.17;;;1.70;;
944;SDS011;459;48.676;9.034;2024-02-15T09:33:56;3.40;;;1.80;;
944;SDS011;459;48.676;9.034;2024-02-15T09:36:23;3.30;;;2.20;;
944;SDS011;459;48.676;9.034;2024-02-15T09:38:48;2.87;;;2.00;;
944;SDS011;459;48.676;9.034;2024-02-15T09:41:14;1.83;;;1.73;;
944;SDS011;459;48.676;9.034;2024-02-15T09:43:39;3.87;;;2.60;;
944;SDS011;459;48.676;9.034;2024-02-15T09:46:05;1.30;;;1.20;;
944;SDS011;459;48.676;9.034;2024-02-15T09:48:31;1.97;;;1.77;;
944;SDS011;459;48.676;9.034;2024-02-15T09:50:57;2.83;;;1.37;;
944;SDS011;459;48.676;9.034;2024-02-15T09:53:22;2.43;;;1.60;;
944;SDS011;459;48.676;9.034;2024-02-15T09:55:50;2.23;;;0.93;;
944;SDS011;459;48.676;9.034;2024-02-15T09:58:16;1.00;;;0.90;;
944;SDS011;459;48.676;9.034;2024-02-15T10:00:42;2.47;;;1.47;;
944;SDS011;459;48.676;9.034;2024-02-15T10:03:08;2.10;;;1.50;;
944;SDS011;459;48.676;9.034;2024-02-15T10:05:35;2.30;;;1.43;;
944;SDS011;459;48.676;9.034;2024-02-15T10:08:00;1.63;;;1.10;;
944;SDS011;459;48.676;9.034;2024-02-15T10:10:27;2.10;;;1.20;;
944;SDS011;459;48.676;9.034;2024-02-15T10:12:52;2.03;;;1.83;;
944;SDS011;459;48.676;9.034;2024-02-15T10:18:01;2.73;;;1.47;;
944;SDS011;459;48.676;9.034;2024-02-15T10:20:27;4.40;;;1.53;;
944;SDS011;459;48.676;9.034;2024-02-15T10:23:14;2.90;;;1.30;;
944;SDS011;459;48.676;9.034;2024-02-15T10:25:38;2.03;;;1.00;;
944;SDS011;459;48.676;9.034;2024-02-15T10:28:07;1.37;;;1.00;;
944;SDS011;459;48.676;9.034;2024-02-15T10:30:34;1.43;;;1.00;;
944;SDS011;459;48.676;9.034;2024-02-15T10:32:59;1.37;;;1.07;;
944;SDS011;459;48.676;9.034;2024-02-15T10:35:24;1.20;;;0.90;;
944;SDS011;459;48.676;9.034;2024-02-15T10:37:50;1.73;;;1.13;;
944;SDS011;459;48.676;9.034;2024-02-15T10:40:19;1.17;;;0.90;;
944;SDS011;459;48.676;9.034;2024-02-15T10:42:45;1.47;;;1.10;;
944;SDS011;459;48.676;9.034;2024-02-15T10:45:11;1.60;;;1.30;;
944;SDS011;459;48.676;9.034;2024-02-15T10:47:37;1.10;;;1.00;;
944;SDS011;459;48.676;9.034;2024-02-15T10:50:02;1.50;;;0.90;;
944;SDS011;459;48.676;9.034;2024-02-15T10:52:30;1.50;;;1.40;;
944;SDS011;459;48.676;9.034;2024-02-15T10:55:03;1.23;;;1.10;;
944;SDS011;459;48.676;9.034;2024-02-15T10:57:31;0.77;;;0.70;;
944;SDS011;459;48.676;9.034;2024-02-15T10:59:57;1.50;;;0.80;;
944;SDS011;459;48.676;9.034;2024-02-15T11:02:29;1.73;;;0.93;;
944;SDS011;459;48.676;9.034;2024-02-15T11:04:55;0.97;;;0.87;;
944;SDS011;459;48.676;9.034;2024-02-15T11:07:23;1.40;;;0.80;;
944;SDS011;459;48.676;9.034;2024-02-15T11:09:48;1.77;;;1.17;;
944;SDS011;459;48.676;9.034;2024-02-15T11:12:14;3.07;;;0.97;;
944;SDS011;459;48.676;9.034;2024-02-15T11:14:42;1.83;;;0.80;;
944;SDS011;459;48.676;9.034;2024-02-15T11:17:09;0.90;;;0.70;;
944;SDS011;459;48.676;9.034;2024-02-15T11:22:21;3.30;;;1.00;;
944;SDS011;459;48.676;9.034;2024-02-15T11:24:52;2.07;;;0.60;;
944;SDS011;459;48.676;9.034;2024-02-15T11:27:27;1.90;;;0.97;;
944;SDS011;459;48.676;9.034;2024-02-15T11:40:12;1.87;;;0.80;;
944;SDS011;459;48.676;9.034;2024-02-15T11:42:38;0.90;;;0.80;;
944;SDS011;459;48.676;9.034;2024-02-15T11:45:07;0.77;;;0.60;;
944;SDS011;459;48.676;9.034;2024-02-15T11:47:34;2.07;;;0.73;;
944;SDS011;459;48.676;9.034;2024-02-15T11:50:01;1.33;;;0.97;;
944;SDS011;459;48.676;9.034;2024-02-15T11:52:27;0.70;;;0.70;;
944;SDS011;459;48.676;9.034;2024-02-15T11:54:53;1.07;;;0.70;;
944;SDS011;459;48.676;9.034;2024-02-15T11:57:18;2.40;;;0.60;;
944;SDS011;459;48.676;9.034;2024-02-15T12:00:01;1.43;;;0.83;;
944;SDS011;459;48.676;9.034;2024-02-15T12:02:59;1.40;;;0.87;;
944;SDS011;459;48.676;9.034;2024-02-15T12:05:43;1.00;;;0.70;;
944;SDS011;459;48.676;9.034;2024-02-15T12:08:26;1.20;;;0.80;;
944;SDS011;459;48.676;9.034;2024-02-15T12:11:13;1.27;;;0.80;;
944;SDS011;459;48.676;9.034;2024-02-15T12:13:57;2.20;;;1.23;;
944;SDS011;459;48.676;9.034;2024-02-15T12:16:40;1.73;;;0.87;;
944;SDS011;459;48.676;9.034;2024-02-15T12:19:24;1.93;;;0.80;;
944;SDS011;459;48.676;9.034;2024-02-15T12:21:50;1.10;;;0.67;;
944;SDS011;459;48.676;9.034;2024-02-15T12:24:15;1.10;;;0.87;;
944;SDS011;459;48.676;9.034;2024-02-15T12:26:42;1.53;;;0.70;;
944;SDS011;459;48.676;9.034;2024-02-15T12:29:07;2.73;;;1.27;;
944;SDS011;459;48.676;9.034;2024-02-15T12:31:35;1.40;;;0.90;;
944;SDS011;459;48.676;9.034;2024-02-15T12:34:03;1.20;;;0.90;;
944;SDS011;459;48.676;9.034;2024-02-15T12:36:32;1.50;;;0.80;;
944;SDS011;459;48.676;9.034;2024-02-15T12:38:59;1.47;;;0.80;;
944;SDS011;459;48.676;9.034;2024-02-15T12:41:24;1.33;;;0.83;;
944;SDS011;459;48.676;9.034;2024-02-15T12:43:52;1.13;;;0.93;;
944;SDS011;459;48.676;9.034;2024-02-15T12:46:18;1.00;;;0.80;;
944;SDS011;459;48.676;9.034;2024-02-15T12:48:44;0.90;;;0.80;;
944;SDS011;459;48.676;9.034;2024-02-15T12:51:15;1.07;;;0.80;;
944;SDS011;459;48.676;9.034;2024-02-15T12:53:40;1.13;;;0.90;;
944;SDS011;459;48.676;9.034;2024-02-15T12:56:06;1.13;;;0.93;;
944;SDS011;459;48.676;9.034;2024-02-15T12:58:34;1.67;;;1.10;;
944;SDS011;459;48.676;9.034;2024-02-15T13:00:59;1.73;;;0.93;;
944;SDS011;459;48.676;9.034;2024-02-15T13:03:26;1.00;;;0.87;;
944;SDS011;459;48.676;9.034;2024-02-15T13:05:51;2.73;;;0.90;;
944;SDS011;459;48.676;9.034;2024-02-15T13:08:16;2.90;;;1.37;;
944;SDS011;459;48.676;9.034;2024-02-15T13:10:43;1.50;;;0.90;;
944;SDS011;459;48.676;9.034;2024-02-15T13:13:09;3.03;;;1.27;;
944;SDS011;459;48.676;9.034;2024-02-15T13:15:35;1.80;;;1.27;;
944;SDS011;459;48.676;9.034;2024-02-15T13:18:01;1.47;;;1.00;;
944;SDS011;459;48.676;9.034;2024-02-15T13:20:29;2.40;;;1.20;;
944;SDS011;459;48.676;9.034;2024-02-15T13:23:01;1.00;;;0.90;;
944;SDS011;459;48.676;9.034;2024-02-15T13:25:28;1.00;;;0.83;;
944;SDS011;459;48.676;9.034;2024-02-15T13:27:53;2.00;;;0.90;;
944;SDS011;459;48.676;9.034;2024-02-15T13:30:18;1.10;;;0.97;;
944;SDS011;459;48.676;9.034;2024-02-15T13:32:48;1.00;;;0.90;;
944;SDS011;459;48.676;9.034;2024-02-15T13:35:13;1.37;;;1.03;;
944;SDS011;459;48.676;9.034;2024-02-15T13:37:47;1.53;;;0.80;;
944;SDS011;459;48.676;9.034;2024-02-15T13:40:13;1.30;;;1.00;;
944;SDS011;459;48.676;9.034;2024-02-15T13:42:45;0.90;;;0.70;;
944;SDS011;459;48.676;9.034;2024-02-15T13:45:14;1.43;;;1.13;;
944;SDS011;459;48.676;9.034;2024-02-15T13:47:40;3.07;;;1.60;;
944;SDS011;459;48.676;9.034;2024-02-15T13:50:05;1.20;;;0.90;;
944;SDS011;459;48.676;9.034;2024-02-15T13:52:30;1.93;;;0.80;;
944;SDS011;459;48.676;9.034;2024-02-15T13:54:56;1.30;;;1.20;;
944;SDS011;459;48.676;9.034;2024-02-15T13:57:21;1.77;;;1.00;;
944;SDS011;459;48.676;9.034;2024-02-15T13:59:46;3.57;;;1.00;;
944;SDS011;459;48.676;9.034;2024-02-15T14:02:11;1.40;;;1.30;;
944;SDS011;459;48.676;9.034;2024-02-15T14:04:36;1.57;;;1.27;;
944;SDS011;459;48.676;9.034;2024-02-15T14:07:03;1.57;;;1.33;;
944;SDS011;459;48.676;9.034;2024-02-15T14:09:28;1.33;;;0.90;;
944;SDS011;459;48.676;9.034;2024-02-15T14:11:53;1.90;;;1.00;;
944;SDS011;459;48.676;9.034;2024-02-15T14:14:19;1.80;;;1.23;;
944;SDS011;459;48.676;9.034;2024-02-15T14:16:44;1.70;;;1.10;;
944;SDS011;459;48.676;9.034;2024-02-15T14:19:09;2.20;;;0.93;;
944;SDS011;459;48.676;9.034;2024-02-15T14:21:37;1.67;;;1.10;;
944;SDS011;459;48.676;9.034;2024-02-15T14:24:05;1.50;;;1.27;;
944;SDS011;459;48.676;9.034;2024-02-15T14:26:31;2.47;;;1.67;;
944;SDS011;459;48.676;9.034;2024-02-15T14:28:57;1.10;;;0.90;;
944;SDS011;459;48.676;9.034;2024-02-15T14:31:22;2.00;;;1.63;;
944;SDS011;459;48.676;9.034;2024-02-15T14:34:05;2.50;;;1.13;;
944;SDS011;459;48.676;9.034;2024-02-15T14:36:31;1.67;;;1.10;;
944;SDS011;459;48.676;9.034;2024-02-15T14:38:56;2.50;;;1.17;;
944;SDS011;459;48.676;9.034;2024-02-15T14:41:21;6.43;;;1.63;;
944;SDS011;459;48.676;9.034;2024-02-15T14:43:47;2.50;;;1.47;;
944;SDS011;459;48.676;9.034;2024-02-15T14:46:13;1.83;;;1.10;;
944;SDS011;459;48.676;9.034;2024-02-15T14:48:38;2.23;;;1.07;;
944;SDS011;459;48.676;9.034;2024-02-15T14:51:06;2.50;;;0.90;;
944;SDS011;459;48.676;9.034;2024-02-15T14:53:31;1.70;;;1.17;;
944;SDS011;459;48.676;9.034;2024-02-15T14:55:56;2.07;;;0.90;;
944;SDS011;459;48.676;9.034;2024-02-15T14:58:21;3.63;;;1.90;;
944;SDS011;459;48.676;9.034;2024-02-15T15:00:49;1.20;;;1.10;;
944;SDS011;459;48.676;9.034;2024-02-15T15:03:15;2.10;;;1.00;;
944;SDS011;459;48.676;9.034;2024-02-15T15:05:43;2.67;;;1.20;;
944;SDS011;459;48.676;9.034;2024-02-15T15:08:27;1.50;;;1.37;;
944;SDS011;459;48.676;9.034;2024-02-15T15:11:11;2.03;;;1.20;;
944;SDS011;459;48.676;9.034;2024-02-15T15:13:55;2.13;;;1.30;;
944;SDS011;459;48.676;9.034;2024-02-15T15:16:20;1.30;;;1.00;;
944;SDS011;459;48.676;9.034;2024-02-15T15:18:47;1.77;;;1.07;;
944;SDS011;459;48.676;9.034;2024-02-15T15:21:12;2.27;;;1.97;;
944;SDS011;459;48.676;9.034;2024-02-15T15:23:38;2.43;;;1.33;;
944;SDS011;459;48.676;9.034;2024-02-15T15:26:04;1.50;;;1.17;;
944;SDS011;459;48.676;9.034;2024-02-15T15:28:29;1.77;;;1.40;;
944;SDS011;459;48.676;9.034;2024-02-15T15:30:54;1.80;;;1.40;;
944;SDS011;459;48.676;9.034;2024-02-15T15:33:21;1.50;;;1.17;;
944;SDS011;459;48.676;9.034;2024-02-15T15:35:47;2.30;;;1.20;;
944;SDS011;459;48.676;9.034;2024-02-15T15:38:12;2.80;;;1.43;;
944;SDS011;459;48.676;9.034;2024-02-15T15:40:37;2.07;;;1.80;;
944;SDS011;459;48.676;9.034;2024-02-15T15:43:03;1.83;;;1.63;;
944;SDS011;459;48.676;9.034;2024-02-15T15:45:30;4.83;;;3.30;;
944;SDS011;459;48.676;9.034;2024-02-15T15:47:55;4.60;;;1.63;;
944;SDS011;459;48.676;9.034;2024-02-15T15:50:20;2.53;;;1.70;;
944;SDS011;459;48.676;9.034;2024-02-15T15:52:46;1.47;;;1.23;;
944;SDS011;459;48.676;9.034;2024-02-15T15:55:11;6.90;;;5.10;;
944;SDS011;459;48.676;9.034;2024-02-15T15:57:37;3.40;;;3.10;;